sensor_id;sensor_type;location;lat;lon;timestamp;temperature;humidity
18175;DHT22;9212;50.894;16.714;2022-09-02T00:02:56;8.70;99.90
18175;DHT22;9212;50.894;16.714;2022-09-02T00:05:23;8.50;99.90
18175;DHT22;9212;50.894;16.714;2022-09-02T00:07:50;8.70;99.90
18175;DHT22;9212;50.894;16.714;2022-09-02T00:10:17;8.50;99.90
18175;DHT22;9212;50.894;16.714;2022-09-02T00:12:44;8.50;99.90
18175;DHT22;9212;50.894;16.714;2022-09-02T00:15:11;8.60;99.90
18175;DHT22;9212;50.894;16.714;2022-09-02T00:17:38;8.40;99.90
18175;DHT22;9212;50.894;16.714;2022-09-02T00:20:08;8.90;99.90
18175;DHT22;9212;50.894;16.714;2022-09-02T00:22:35;8.70;99.90
18175;DHT22;9212;50.894;16.714;2022-09-02T00:25:02;8.10;99.90
18175;DHT22;9212;50.894;16.714;2022-09-02T00:27:29;8.50;99.90
18175;DHT22;9212;50.894;16.714;2022-09-02T00:29:56;9.70;99.90
18175;DHT22;9212;50.894;16.714;2022-09-02T00:32:23;8.40;99.90
18175;DHT22;9212;50.894;16.714;2022-09-02T00:34:50;8.40;99.90
18175;DHT22;9212;50.894;16.714;2022-09-02T00:37:18;8.30;99.90
18175;DHT22;9212;50.894;16.714;2022-09-02T00:39:45;8.50;99.90
18175;DHT22;9212;50.894;16.714;2022-09-02T00:44:39;8.30;99.90
18175;DHT22;9212;50.894;16.714;2022-09-02T00:47:07;8.60;99.90
18175;DHT22;9212;50.894;16.714;2022-09-02T00:49:37;7.90;99.90
18175;DHT22;9212;50.894;16.714;2022-09-02T00:52:08;9.20;99.90
18175;DHT22;9212;50.894;16.714;2022-09-02T00:54:40;8.50;99.90
18175;DHT22;9212;50.894;16.714;2022-09-02T00:57:12;8.50;99.90
18175;DHT22;9212;50.894;16.714;2022-09-02T00:59:58;8.50;99.90
18175;DHT22;9212;50.894;16.714;2022-09-02T01:02:27;8.10;99.90
18175;DHT22;9212;50.894;16.714;2022-09-02T01:04:56;8.20;99.90
18175;DHT22;9212;50.894;16.714;2022-09-02T01:07:25;8.60;99.90
18175;DHT22;9212;50.894;16.714;2022-09-02T01:09:55;8.50;99.90
18175;DHT22;9212;50.894;16.714;2022-09-02T01:12:23;8.30;99.90
18175;DHT22;9212;50.894;16.714;2022-09-02T01:14:52;8.40;99.90
18175;DHT22;9212;50.894;16.714;2022-09-02T01:17:19;8.50;99.90
18175;DHT22;9212;50.894;16.714;2022-09-02T01:19:48;8.60;99.90
18175;DHT22;9212;50.894;16.714;2022-09-02T01:22:19;8.30;99.90
18175;DHT22;9212;50.894;16.714;2022-09-02T01:24:47;9.30;99.90
18175;DHT22;9212;50.894;16.714;2022-09-02T01:27:15;8.40;99.90
18175;DHT22;9212;50.894;16.714;2022-09-02T01:29:43;8.70;99.90
18175;DHT22;9212;50.894;16.714;2022-09-02T01:32:10;9.00;99.90
18175;DHT22;9212;50.894;16.714;2022-09-02T01:34:37;8.20;99.90
18175;DHT22;9212;50.894;16.714;2022-09-02T01:37:04;8.80;99.90
18175;DHT22;9212;50.894;16.714;2022-09-02T01:39:33;8.60;99.90
18175;DHT22;9212;50.894;16.714;2022-09-02T01:44:28;8.70;99.90
18175;DHT22;9212;50.894;16.714;2022-09-02T01:49:22;8.60;99.90
18175;DHT22;9212;50.894;16.714;2022-09-02T01:51:53;8.70;99.90
18175;DHT22;9212;50.894;16.714;2022-09-02T01:54:20;8.50;99.90
18175;DHT22;9212;50.894;16.714;2022-09-02T01:56:48;8.60;99.90
18175;DHT22;9212;50.894;16.714;2022-09-02T02:01:45;8.40;99.90
18175;DHT22;9212;50.894;16.714;2022-09-02T02:04:13;8.40;99.90
18175;DHT22;9212;50.894;16.714;2022-09-02T02:06:41;8.40;99.90
18175;DHT22;9212;50.894;16.714;2022-09-02T02:09:08;9.60;99.90
18175;DHT22;9212;50.894;16.714;2022-09-02T02:11:36;8.70;99.90
18175;DHT22;9212;50.894;16.714;2022-09-02T02:14:04;8.40;99.90
18175;DHT22;9212;50.894;16.714;2022-09-02T02:16:31;8.90;99.90
18175;DHT22;9212;50.894;16.714;2022-09-02T02:18:58;8.10;99.90
18175;DHT22;9212;50.894;16.714;2022-09-02T02:21:26;8.60;99.90
18175;DHT22;9212;50.894;16.714;2022-09-02T02:23:53;8.40;99.90
18175;DHT22;9212;50.894;16.714;2022-09-02T02:26:20;9.10;99.90
18175;DHT22;9212;50.894;16.714;2022-09-02T02:28:47;8.30;99.90
18175;DHT22;9212;50.894;16.714;2022-09-02T02:31:15;8.50;99.90
18175;DHT22;9212;50.894;16.714;2022-09-02T02:33:42;8.90;99.90
18175;DHT22;9212;50.894;16.714;2022-09-02T02:36:10;8.40;99.90
18175;DHT22;9212;50.894;16.714;2022-09-02T02:38:37;9.10;99.90
18175;DHT22;9212;50.894;16.714;2022-09-02T02:45:59;8.30;99.90
18175;DHT22;9212;50.894;16.714;2022-09-02T02:48:28;8.20;99.90
18175;DHT22;9212;50.894;16.714;2022-09-02T02:50:55;8.30;99.90
18175;DHT22;9212;50.894;16.714;2022-09-02T02:53:22;8.10;99.90
18175;DHT22;9212;50.894;16.714;2022-09-02T02:55:49;8.30;99.90
18175;DHT22;9212;50.894;16.714;2022-09-02T03:00:43;8.50;99.90
18175;DHT22;9212;50.894;16.714;2022-09-02T03:03:10;8.50;99.90
18175;DHT22;9212;50.894;16.714;2022-09-02T03:05:39;8.30;99.90
18175;DHT22;9212;50.894;16.714;2022-09-02T03:08:08;7.90;99.90
18175;DHT22;9212;50.894;16.714;2022-09-02T03:10:36;8.30;99.90
18175;DHT22;9212;50.894;16.714;2022-09-02T03:13:03;8.10;99.90
18175;DHT22;9212;50.894;16.714;2022-09-02T03:15:30;9.00;99.90
18175;DHT22;9212;50.894;16.714;2022-09-02T03:17:58;8.30;99.90
18175;DHT22;9212;50.894;16.714;2022-09-02T03:20:25;8.80;99.90
18175;DHT22;9212;50.894;16.714;2022-09-02T03:22:55;8.20;99.90
18175;DHT22;9212;50.894;16.714;2022-09-02T03:25:24;8.00;99.90
18175;DHT22;9212;50.894;16.714;2022-09-02T03:27:52;8.20;99.90
18175;DHT22;9212;50.894;16.714;2022-09-02T03:30:21;8.40;99.90
18175;DHT22;9212;50.894;16.714;2022-09-02T03:32:49;8.60;99.90
18175;DHT22;9212;50.894;16.714;2022-09-02T03:35:18;8.20;99.90
18175;DHT22;9212;50.894;16.714;2022-09-02T03:37:47;8.80;99.90
18175;DHT22;9212;50.894;16.714;2022-09-02T03:40:17;8.30;99.90
18175;DHT22;9212;50.894;16.714;2022-09-02T03:45:13;8.60;99.90
18175;DHT22;9212;50.894;16.714;2022-09-02T03:47:41;9.30;99.90
18175;DHT22;9212;50.894;16.714;2022-09-02T03:50:15;8.10;99.90
18175;DHT22;9212;50.894;16.714;2022-09-02T03:52:42;7.90;99.90
18175;DHT22;9212;50.894;16.714;2022-09-02T03:55:10;8.40;99.90
18175;DHT22;9212;50.894;16.714;2022-09-02T03:57:38;8.30;99.90
18175;DHT22;9212;50.894;16.714;2022-09-02T04:00:08;8.00;99.90
18175;DHT22;9212;50.894;16.714;2022-09-02T04:02:35;9.20;99.90
18175;DHT22;9212;50.894;16.714;2022-09-02T04:05:03;8.20;99.90
18175;DHT22;9212;50.894;16.714;2022-09-02T04:07:30;8.30;99.90
18175;DHT22;9212;50.894;16.714;2022-09-02T04:14:53;8.40;99.90
18175;DHT22;9212;50.894;16.714;2022-09-02T04:17:20;8.00;99.90
18175;DHT22;9212;50.894;16.714;2022-09-02T04:19:47;8.80;99.90
18175;DHT22;9212;50.894;16.714;2022-09-02T04:22:14;9.30;99.90
18175;DHT22;9212;50.894;16.714;2022-09-02T04:24:41;8.70;99.90
18175;DHT22;9212;50.894;16.714;2022-09-02T04:27:08;9.50;99.90
18175;DHT22;9212;50.894;16.714;2022-09-02T04:29:35;8.80;99.90
18175;DHT22;9212;50.894;16.714;2022-09-02T04:32:04;8.90;99.90
18175;DHT22;9212;50.894;16.714;2022-09-02T04:34:31;9.00;99.90
18175;DHT22;9212;50.894;16.714;2022-09-02T04:36:58;9.20;99.90
18175;DHT22;9212;50.894;16.714;2022-09-02T04:39:25;8.60;99.90
18175;DHT22;9212;50.894;16.714;2022-09-02T04:44:19;8.70;99.90
18175;DHT22;9212;50.894;16.714;2022-09-02T04:46:46;9.70;99.90
18175;DHT22;9212;50.894;16.714;2022-09-02T04:49:15;9.60;99.90
18175;DHT22;9212;50.894;16.714;2022-09-02T04:51:42;10.40;99.90
18175;DHT22;9212;50.894;16.714;2022-09-02T04:54:09;9.90;99.90
18175;DHT22;9212;50.894;16.714;2022-09-02T04:56:36;10.30;99.90
18175;DHT22;9212;50.894;16.714;2022-09-02T04:59:04;10.20;99.90
18175;DHT22;9212;50.894;16.714;2022-09-02T05:01:33;10.70;99.90
18175;DHT22;9212;50.894;16.714;2022-09-02T05:04:03;10.20;99.90
18175;DHT22;9212;50.894;16.714;2022-09-02T05:06:33;10.30;99.90
18175;DHT22;9212;50.894;16.714;2022-09-02T05:09:01;10.20;99.90
18175;DHT22;9212;50.894;16.714;2022-09-02T05:11:30;10.50;99.90
18175;DHT22;9212;50.894;16.714;2022-09-02T05:13:59;10.60;99.90
18175;DHT22;9212;50.894;16.714;2022-09-02T05:16:28;10.70;99.90
18175;DHT22;9212;50.894;16.714;2022-09-02T05:18:56;10.90;99.90
18175;DHT22;9212;50.894;16.714;2022-09-02T05:21:23;11.30;99.90
18175;DHT22;9212;50.894;16.714;2022-09-02T05:23:52;11.90;99.90
18175;DHT22;9212;50.894;16.714;2022-09-02T05:26:19;11.50;99.90
18175;DHT22;9212;50.894;16.714;2022-09-02T05:28:46;11.40;99.90
18175;DHT22;9212;50.894;16.714;2022-09-02T05:31:14;11.50;99.90
18175;DHT22;9212;50.894;16.714;2022-09-02T05:33:43;11.20;99.90
18175;DHT22;9212;50.894;16.714;2022-09-02T05:36:12;11.80;99.90
18175;DHT22;9212;50.894;16.714;2022-09-02T05:38:40;11.40;99.90
18175;DHT22;9212;50.894;16.714;2022-09-02T05:41:11;11.50;99.90
18175;DHT22;9212;50.894;16.714;2022-09-02T05:43:40;11.40;99.90
18175;DHT22;9212;50.894;16.714;2022-09-02T05:46:10;12.10;99.90
18175;DHT22;9212;50.894;16.714;2022-09-02T05:48:38;13.00;99.90
18175;DHT22;9212;50.894;16.714;2022-09-02T05:51:22;12.50;99.90
18175;DHT22;9212;50.894;16.714;2022-09-02T05:53:51;12.50;99.90
18175;DHT22;9212;50.894;16.714;2022-09-02T05:56:20;12.40;99.90
18175;DHT22;9212;50.894;16.714;2022-09-02T05:58:47;12.60;99.90
18175;DHT22;9212;50.894;16.714;2022-09-02T06:01:15;12.60;99.90
18175;DHT22;9212;50.894;16.714;2022-09-02T06:03:42;13.90;99.90
18175;DHT22;9212;50.894;16.714;2022-09-02T06:06:09;14.30;99.90
18175;DHT22;9212;50.894;16.714;2022-09-02T06:08:37;14.10;99.90
18175;DHT22;9212;50.894;16.714;2022-09-02T06:11:07;13.60;99.90
18175;DHT22;9212;50.894;16.714;2022-09-02T06:13:37;12.70;99.90
18175;DHT22;9212;50.894;16.714;2022-09-02T06:16:06;12.50;99.90
18175;DHT22;9212;50.894;16.714;2022-09-02T06:18:36;12.90;99.90
18175;DHT22;9212;50.894;16.714;2022-09-02T06:21:04;12.60;99.90
18175;DHT22;9212;50.894;16.714;2022-09-02T06:23:33;12.20;99.90
18175;DHT22;9212;50.894;16.714;2022-09-02T06:26:00;12.60;99.90
18175;DHT22;9212;50.894;16.714;2022-09-02T06:28:27;12.60;99.90
18175;DHT22;9212;50.894;16.714;2022-09-02T06:30:56;12.70;99.90
18175;DHT22;9212;50.894;16.714;2022-09-02T06:33:23;12.60;99.90
18175;DHT22;9212;50.894;16.714;2022-09-02T06:35:50;13.50;99.90
18175;DHT22;9212;50.894;16.714;2022-09-02T06:38:17;13.60;99.90
18175;DHT22;9212;50.894;16.714;2022-09-02T06:40:46;14.00;99.90
18175;DHT22;9212;50.894;16.714;2022-09-02T06:43:13;14.20;99.90
18175;DHT22;9212;50.894;16.714;2022-09-02T06:45:41;14.40;99.90
18175;DHT22;9212;50.894;16.714;2022-09-02T06:48:10;14.60;99.90
18175;DHT22;9212;50.894;16.714;2022-09-02T06:50:38;14.60;99.90
18175;DHT22;9212;50.894;16.714;2022-09-02T06:55:34;15.70;99.90
18175;DHT22;9212;50.894;16.714;2022-09-02T06:58:02;16.90;99.90
18175;DHT22;9212;50.894;16.714;2022-09-02T07:00:30;18.40;99.90
18175;DHT22;9212;50.894;16.714;2022-09-02T07:02:57;19.00;99.90
18175;DHT22;9212;50.894;16.714;2022-09-02T07:05:43;23.70;99.90
18175;DHT22;9212;50.894;16.714;2022-09-02T07:08:10;25.40;99.90
18175;DHT22;9212;50.894;16.714;2022-09-02T07:10:37;26.70;99.90
18175;DHT22;9212;50.894;16.714;2022-09-02T07:13:05;25.80;99.90
18175;DHT22;9212;50.894;16.714;2022-09-02T07:15:33;26.40;99.90
18175;DHT22;9212;50.894;16.714;2022-09-02T07:18:00;26.30;99.90
18175;DHT22;9212;50.894;16.714;2022-09-02T07:20:28;26.50;99.90
18175;DHT22;9212;50.894;16.714;2022-09-02T07:22:56;26.20;99.90
18175;DHT22;9212;50.894;16.714;2022-09-02T07:25:23;26.90;99.90
18175;DHT22;9212;50.894;16.714;2022-09-02T07:27:50;27.00;99.90
18175;DHT22;9212;50.894;16.714;2022-09-02T07:30:18;26.10;99.90
18175;DHT22;9212;50.894;16.714;2022-09-02T07:32:45;25.20;99.90
18175;DHT22;9212;50.894;16.714;2022-09-02T07:35:12;25.30;99.90
18175;DHT22;9212;50.894;16.714;2022-09-02T07:37:39;25.50;99.90
18175;DHT22;9212;50.894;16.714;2022-09-02T07:40:08;26.50;99.90
18175;DHT22;9212;50.894;16.714;2022-09-02T07:42:36;26.70;99.90
18175;DHT22;9212;50.894;16.714;2022-09-02T07:45:04;26.40;99.70
18175;DHT22;9212;50.894;16.714;2022-09-02T07:47:31;25.90;99.90
18175;DHT22;9212;50.894;16.714;2022-09-02T07:49:58;25.70;99.90
18175;DHT22;9212;50.894;16.714;2022-09-02T07:52:25;25.60;99.90
18175;DHT22;9212;50.894;16.714;2022-09-02T07:54:52;24.10;99.90
18175;DHT22;9212;50.894;16.714;2022-09-02T07:57:21;24.50;99.90
18175;DHT22;9212;50.894;16.714;2022-09-02T07:59:49;25.20;99.90
18175;DHT22;9212;50.894;16.714;2022-09-02T08:02:16;25.20;99.90
18175;DHT22;9212;50.894;16.714;2022-09-02T08:04:43;24.60;99.90
18175;DHT22;9212;50.894;16.714;2022-09-02T08:07:11;24.10;99.90
18175;DHT22;9212;50.894;16.714;2022-09-02T08:09:38;24.20;99.90
18175;DHT22;9212;50.894;16.714;2022-09-02T08:12:05;24.10;99.90
18175;DHT22;9212;50.894;16.714;2022-09-02T08:14:34;23.60;99.90
18175;DHT22;9212;50.894;16.714;2022-09-02T08:17:01;23.40;99.90
18175;DHT22;9212;50.894;16.714;2022-09-02T08:19:28;22.30;99.90
18175;DHT22;9212;50.894;16.714;2022-09-02T08:21:54;21.70;99.90
18175;DHT22;9212;50.894;16.714;2022-09-02T08:24:21;21.10;99.90
18175;DHT22;9212;50.894;16.714;2022-09-02T08:26:48;20.80;99.90
18175;DHT22;9212;50.894;16.714;2022-09-02T08:29:16;20.70;99.90
18175;DHT22;9212;50.894;16.714;2022-09-02T08:31:44;20.50;99.90
18175;DHT22;9212;50.894;16.714;2022-09-02T08:34:11;20.60;99.90
18175;DHT22;9212;50.894;16.714;2022-09-02T08:36:38;20.90;99.90
18175;DHT22;9212;50.894;16.714;2022-09-02T08:39:08;21.10;99.90
18175;DHT22;9212;50.894;16.714;2022-09-02T08:41:43;21.00;99.90
18175;DHT22;9212;50.894;16.714;2022-09-02T08:44:17;20.70;99.90
18175;DHT22;9212;50.894;16.714;2022-09-02T08:46:48;21.00;99.90
18175;DHT22;9212;50.894;16.714;2022-09-02T08:49:21;21.00;99.90
18175;DHT22;9212;50.894;16.714;2022-09-02T08:51:52;21.00;99.90
18175;DHT22;9212;50.894;16.714;2022-09-02T08:54:25;21.10;99.90
18175;DHT22;9212;50.894;16.714;2022-09-02T08:56:54;21.30;99.90
18175;DHT22;9212;50.894;16.714;2022-09-02T08:59:25;21.40;99.90
18175;DHT22;9212;50.894;16.714;2022-09-02T09:02:00;21.50;99.90
18175;DHT22;9212;50.894;16.714;2022-09-02T09:04:42;21.40;99.90
18175;DHT22;9212;50.894;16.714;2022-09-02T09:07:22;21.60;99.90
18175;DHT22;9212;50.894;16.714;2022-09-02T09:10:12;21.40;99.90
18175;DHT22;9212;50.894;16.714;2022-09-02T09:13:09;21.50;99.90
18175;DHT22;9212;50.894;16.714;2022-09-02T09:15:45;22.50;99.90
18175;DHT22;9212;50.894;16.714;2022-09-02T09:18:17;22.50;99.90
18175;DHT22;9212;50.894;16.714;2022-09-02T09:20:45;22.10;99.90
18175;DHT22;9212;50.894;16.714;2022-09-02T09:23:27;22.30;99.90
18175;DHT22;9212;50.894;16.714;2022-09-02T09:26:03;22.80;99.90
18175;DHT22;9212;50.894;16.714;2022-09-02T09:28:33;22.80;99.90
18175;DHT22;9212;50.894;16.714;2022-09-02T09:31:07;22.30;99.90
18175;DHT22;9212;50.894;16.714;2022-09-02T09:33:37;22.60;99.90
18175;DHT22;9212;50.894;16.714;2022-09-02T09:36:04;22.80;99.90
18175;DHT22;9212;50.894;16.714;2022-09-02T09:38:32;22.30;99.90
18175;DHT22;9212;50.894;16.714;2022-09-02T09:41:24;21.40;99.90
18175;DHT22;9212;50.894;16.714;2022-09-02T09:43:53;20.10;99.90
18175;DHT22;9212;50.894;16.714;2022-09-02T09:46:26;20.20;99.90
18175;DHT22;9212;50.894;16.714;2022-09-02T09:48:54;21.10;99.90
18175;DHT22;9212;50.894;16.714;2022-09-02T09:51:21;21.10;99.90
18175;DHT22;9212;50.894;16.714;2022-09-02T09:53:49;22.40;99.90
18175;DHT22;9212;50.894;16.714;2022-09-02T09:56:25;23.30;99.90
18175;DHT22;9212;50.894;16.714;2022-09-02T09:58:53;23.40;99.90
18175;DHT22;9212;50.894;16.714;2022-09-02T10:01:22;23.30;99.90
18175;DHT22;9212;50.894;16.714;2022-09-02T10:03:51;22.30;99.90
18175;DHT22;9212;50.894;16.714;2022-09-02T10:06:22;22.20;99.90
18175;DHT22;9212;50.894;16.714;2022-09-02T10:08:52;21.30;99.90
18175;DHT22;9212;50.894;16.714;2022-09-02T10:11:22;21.40;99.90
18175;DHT22;9212;50.894;16.714;2022-09-02T10:13:49;20.90;99.90
18175;DHT22;9212;50.894;16.714;2022-09-02T10:16:37;20.60;99.90
18175;DHT22;9212;50.894;16.714;2022-09-02T10:19:11;20.60;99.90
18175;DHT22;9212;50.894;16.714;2022-09-02T10:21:57;21.60;99.90
18175;DHT22;9212;50.894;16.714;2022-09-02T10:24:46;20.40;99.90
18175;DHT22;9212;50.894;16.714;2022-09-02T10:27:22;19.90;99.90
18175;DHT22;9212;50.894;16.714;2022-09-02T10:29:53;19.90;99.90
18175;DHT22;9212;50.894;16.714;2022-09-02T10:32:40;21.70;99.90
18175;DHT22;9212;50.894;16.714;2022-09-02T10:35:14;22.20;99.90
18175;DHT22;9212;50.894;16.714;2022-09-02T10:38:00;23.60;99.90
18175;DHT22;9212;50.894;16.714;2022-09-02T10:40:35;24.60;99.90
18175;DHT22;9212;50.894;16.714;2022-09-02T10:43:07;24.80;99.50
18175;DHT22;9212;50.894;16.714;2022-09-02T10:45:36;25.10;99.90
18175;DHT22;9212;50.894;16.714;2022-09-02T10:48:16;25.90;98.20
18175;DHT22;9212;50.894;16.714;2022-09-02T10:50:50;25.60;99.90
18175;DHT22;9212;50.894;16.714;2022-09-02T10:53:34;25.50;92.80
18175;DHT22;9212;50.894;16.714;2022-09-02T10:56:06;25.10;97.20
18175;DHT22;9212;50.894;16.714;2022-09-02T10:58:40;24.50;96.90
18175;DHT22;9212;50.894;16.714;2022-09-02T11:01:13;23.20;98.10
18175;DHT22;9212;50.894;16.714;2022-09-02T11:03:46;22.40;97.50
18175;DHT22;9212;50.894;16.714;2022-09-02T11:06:21;22.00;99.90
18175;DHT22;9212;50.894;16.714;2022-09-02T11:08:53;21.80;98.50
18175;DHT22;9212;50.894;16.714;2022-09-02T11:11:25;22.00;99.90
18175;DHT22;9212;50.894;16.714;2022-09-02T11:13:59;21.40;99.90
18175;DHT22;9212;50.894;16.714;2022-09-02T11:16:31;21.30;99.90
18175;DHT22;9212;50.894;16.714;2022-09-02T11:19:04;21.50;99.90
18175;DHT22;9212;50.894;16.714;2022-09-02T11:21:48;21.70;99.90
18175;DHT22;9212;50.894;16.714;2022-09-02T11:24:22;21.50;99.90
18175;DHT22;9212;50.894;16.714;2022-09-02T11:26:57;21.60;99.90
18175;DHT22;9212;50.894;16.714;2022-09-02T11:29:35;21.30;99.90
18175;DHT22;9212;50.894;16.714;2022-09-02T11:32:09;21.10;99.90
18175;DHT22;9212;50.894;16.714;2022-09-02T11:34:41;21.10;99.90
18175;DHT22;9212;50.894;16.714;2022-09-02T11:37:13;21.30;98.60
18175;DHT22;9212;50.894;16.714;2022-09-02T11:39:45;21.00;97.80
18175;DHT22;9212;50.894;16.714;2022-09-02T11:42:35;21.30;99.90
18175;DHT22;9212;50.894;16.714;2022-09-02T11:45:39;21.50;99.20
18175;DHT22;9212;50.894;16.714;2022-09-02T11:48:30;21.30;99.90
18175;DHT22;9212;50.894;16.714;2022-09-02T11:51:32;21.20;99.90
18175;DHT22;9212;50.894;16.714;2022-09-02T11:54:03;20.00;99.90
18175;DHT22;9212;50.894;16.714;2022-09-02T11:56:37;20.60;99.90
18175;DHT22;9212;50.894;16.714;2022-09-02T11:59:06;20.60;99.90
18175;DHT22;9212;50.894;16.714;2022-09-02T12:01:36;21.10;99.90
18175;DHT22;9212;50.894;16.714;2022-09-02T12:04:05;20.70;99.70
18175;DHT22;9212;50.894;16.714;2022-09-02T12:06:32;21.00;99.90
18175;DHT22;9212;50.894;16.714;2022-09-02T12:09:05;21.10;99.90
18175;DHT22;9212;50.894;16.714;2022-09-02T12:11:48;21.20;99.90
18175;DHT22;9212;50.894;16.714;2022-09-02T12:18:10;21.80;99.90
18175;DHT22;9212;50.894;16.714;2022-09-02T12:21:11;22.50;99.90
18175;DHT22;9212;50.894;16.714;2022-09-02T12:27:19;22.00;99.90
18175;DHT22;9212;50.894;16.714;2022-09-02T12:29:47;21.70;99.90
18175;DHT22;9212;50.894;16.714;2022-09-02T12:35:29;22.00;99.90
18175;DHT22;9212;50.894;16.714;2022-09-02T12:38:25;22.00;92.90
18175;DHT22;9212;50.894;16.714;2022-09-02T12:40:59;22.30;99.90
18175;DHT22;9212;50.894;16.714;2022-09-02T12:43:43;22.30;94.80
18175;DHT22;9212;50.894;16.714;2022-09-02T12:46:19;22.50;98.20
18175;DHT22;9212;50.894;16.714;2022-09-02T12:48:50;22.90;96.00
18175;DHT22;9212;50.894;16.714;2022-09-02T12:51:52;22.40;99.90
18175;DHT22;9212;50.894;16.714;2022-09-02T12:54:33;22.20;99.80
18175;DHT22;9212;50.894;16.714;2022-09-02T12:57:01;22.30;95.90
18175;DHT22;9212;50.894;16.714;2022-09-02T12:59:32;22.20;99.90
18175;DHT22;9212;50.894;16.714;2022-09-02T13:02:20;22.20;94.50
18175;DHT22;9212;50.894;16.714;2022-09-02T13:05:00;23.20;94.10
18175;DHT22;9212;50.894;16.714;2022-09-02T13:08:01;23.30;93.90
18175;DHT22;9212;50.894;16.714;2022-09-02T13:13:53;22.60;99.90
18175;DHT22;9212;50.894;16.714;2022-09-02T13:16:36;22.70;99.90
18175;DHT22;9212;50.894;16.714;2022-09-02T13:19:29;22.70;94.70
18175;DHT22;9212;50.894;16.714;2022-09-02T13:22:27;22.70;98.10
18175;DHT22;9212;50.894;16.714;2022-09-02T13:25:28;22.60;95.50
18175;DHT22;9212;50.894;16.714;2022-09-02T13:31:09;21.70;93.40
18175;DHT22;9212;50.894;16.714;2022-09-02T13:33:40;21.90;95.60
18175;DHT22;9212;50.894;16.714;2022-09-02T13:36:08;21.80;94.00
18175;DHT22;9212;50.894;16.714;2022-09-02T13:38:35;21.60;99.90
18175;DHT22;9212;50.894;16.714;2022-09-02T13:41:03;21.90;98.10
18175;DHT22;9212;50.894;16.714;2022-09-02T13:43:30;21.40;99.90
18175;DHT22;9212;50.894;16.714;2022-09-02T13:46:00;22.00;99.90
18175;DHT22;9212;50.894;16.714;2022-09-02T13:48:29;21.60;99.90
18175;DHT22;9212;50.894;16.714;2022-09-02T13:51:10;21.20;99.90
18175;DHT22;9212;50.894;16.714;2022-09-02T13:53:39;21.50;94.50
18175;DHT22;9212;50.894;16.714;2022-09-02T13:56:08;21.60;94.80
18175;DHT22;9212;50.894;16.714;2022-09-02T13:58:39;22.10;99.90
18175;DHT22;9212;50.894;16.714;2022-09-02T14:01:19;21.50;92.40
18175;DHT22;9212;50.894;16.714;2022-09-02T14:03:47;21.70;94.90
18175;DHT22;9212;50.894;16.714;2022-09-02T14:06:18;22.00;94.30
18175;DHT22;9212;50.894;16.714;2022-09-02T14:08:48;21.80;96.00
18175;DHT22;9212;50.894;16.714;2022-09-02T14:11:16;21.50;97.20
18175;DHT22;9212;50.894;16.714;2022-09-02T14:13:46;21.10;97.30
18175;DHT22;9212;50.894;16.714;2022-09-02T14:16:24;21.00;97.90
18175;DHT22;9212;50.894;16.714;2022-09-02T14:19:10;20.90;98.00
18175;DHT22;9212;50.894;16.714;2022-09-02T14:21:45;20.90;99.80
18175;DHT22;9212;50.894;16.714;2022-09-02T14:24:15;20.60;99.60
18175;DHT22;9212;50.894;16.714;2022-09-02T14:26:46;20.60;99.90
18175;DHT22;9212;50.894;16.714;2022-09-02T14:29:17;20.60;99.90
18175;DHT22;9212;50.894;16.714;2022-09-02T14:31:46;20.60;97.60
18175;DHT22;9212;50.894;16.714;2022-09-02T14:34:35;20.60;99.90
18175;DHT22;9212;50.894;16.714;2022-09-02T14:37:19;20.90;99.90
18175;DHT22;9212;50.894;16.714;2022-09-02T14:40:01;20.60;99.90
18175;DHT22;9212;50.894;16.714;2022-09-02T14:42:30;20.50;98.50
18175;DHT22;9212;50.894;16.714;2022-09-02T14:44:57;20.80;99.90
18175;DHT22;9212;50.894;16.714;2022-09-02T14:47:25;21.10;99.90
18175;DHT22;9212;50.894;16.714;2022-09-02T14:49:54;23.90;99.90
18175;DHT22;9212;50.894;16.714;2022-09-02T14:52:25;21.60;98.40
18175;DHT22;9212;50.894;16.714;2022-09-02T14:54:53;21.40;99.90
18175;DHT22;9212;50.894;16.714;2022-09-02T14:57:24;21.30;98.00
18175;DHT22;9212;50.894;16.714;2022-09-02T14:59:54;21.10;99.90
18175;DHT22;9212;50.894;16.714;2022-09-02T15:02:29;20.90;99.90
18175;DHT22;9212;50.894;16.714;2022-09-02T15:04:59;20.80;99.90
18175;DHT22;9212;50.894;16.714;2022-09-02T15:07:28;20.30;99.90
18175;DHT22;9212;50.894;16.714;2022-09-02T15:09:55;20.10;99.90
18175;DHT22;9212;50.894;16.714;2022-09-02T15:12:24;20.30;99.90
18175;DHT22;9212;50.894;16.714;2022-09-02T15:14:54;19.00;99.90
18175;DHT22;9212;50.894;16.714;2022-09-02T15:17:22;19.70;99.90
18175;DHT22;9212;50.894;16.714;2022-09-02T15:19:49;19.90;99.90
18175;DHT22;9212;50.894;16.714;2022-09-02T15:22:17;19.90;99.90
18175;DHT22;9212;50.894;16.714;2022-09-02T15:24:45;19.60;99.90
18175;DHT22;9212;50.894;16.714;2022-09-02T15:27:14;19.70;99.90
18175;DHT22;9212;50.894;16.714;2022-09-02T15:29:42;19.70;99.90
18175;DHT22;9212;50.894;16.714;2022-09-02T15:34:36;19.80;99.90
18175;DHT22;9212;50.894;16.714;2022-09-02T15:37:03;19.50;99.90
18175;DHT22;9212;50.894;16.714;2022-09-02T15:39:30;19.20;99.90
18175;DHT22;9212;50.894;16.714;2022-09-02T15:41:58;19.00;99.90
18175;DHT22;9212;50.894;16.714;2022-09-02T15:44:25;18.90;99.90
18175;DHT22;9212;50.894;16.714;2022-09-02T15:46:53;18.60;99.90
18175;DHT22;9212;50.894;16.714;2022-09-02T15:49:22;18.30;99.90
18175;DHT22;9212;50.894;16.714;2022-09-02T15:51:50;18.70;99.90
18175;DHT22;9212;50.894;16.714;2022-09-02T15:54:18;19.30;99.90
18175;DHT22;9212;50.894;16.714;2022-09-02T15:56:46;18.40;99.90
18175;DHT22;9212;50.894;16.714;2022-09-02T15:59:16;18.50;99.90
18175;DHT22;9212;50.894;16.714;2022-09-02T16:01:47;18.60;99.90
18175;DHT22;9212;50.894;16.714;2022-09-02T16:04:14;18.70;99.90
18175;DHT22;9212;50.894;16.714;2022-09-02T16:06:43;19.20;99.90
18175;DHT22;9212;50.894;16.714;2022-09-02T16:09:11;19.10;99.90
18175;DHT22;9212;50.894;16.714;2022-09-02T16:11:39;19.60;99.90
18175;DHT22;9212;50.894;16.714;2022-09-02T16:14:08;19.40;99.90
18175;DHT22;9212;50.894;16.714;2022-09-02T16:16:38;19.30;99.90
18175;DHT22;9212;50.894;16.714;2022-09-02T16:19:05;19.30;99.90
18175;DHT22;9212;50.894;16.714;2022-09-02T16:21:33;19.20;99.90
18175;DHT22;9212;50.894;16.714;2022-09-02T16:24:03;19.00;99.90
18175;DHT22;9212;50.894;16.714;2022-09-02T16:26:31;18.80;99.90
18175;DHT22;9212;50.894;16.714;2022-09-02T16:29:00;18.50;99.90
18175;DHT22;9212;50.894;16.714;2022-09-02T16:31:29;18.50;99.90
18175;DHT22;9212;50.894;16.714;2022-09-02T16:34:00;18.30;99.90
18175;DHT22;9212;50.894;16.714;2022-09-02T16:36:28;17.90;99.90
18175;DHT22;9212;50.894;16.714;2022-09-02T16:38:56;18.40;99.90
18175;DHT22;9212;50.894;16.714;2022-09-02T16:41:26;17.10;99.90
18175;DHT22;9212;50.894;16.714;2022-09-02T16:43:54;18.30;99.90
18175;DHT22;9212;50.894;16.714;2022-09-02T16:46:22;18.70;99.90
18175;DHT22;9212;50.894;16.714;2022-09-02T16:48:49;18.20;99.90